sensor_id;sensor_type;location;lat;lon;timestamp;P1;durP1;ratioP1;P2;durP2;ratioP2
1004;SDS011;491;53.480;10.174;2023-11-19T00:02:15;7.93;;;5.33;;
1004;SDS011;491;53.480;10.174;2023-11-19T00:04:40;7.67;;;4.70;;
1004;SDS011;491;53.480;10.174;2023-11-19T00:07:06;8.20;;;5.20;;
1004;SDS011;491;53.480;10.174;2023-11-19T00:09:35;8.67;;;4.67;;
1004;SDS011;491;53.480;10.174;2023-11-19T00:12:02;8.87;;;6.00;;
1004;SDS011;491;53.480;10.174;2023-11-19T00:14:29;7.77;;;5.30;;
1004;SDS011;491;53.480;10.174;2023-11-19T00:16:54;7.00;;;4.53;;
1004;SDS011;491;53.480;10.174;2023-11-19T00:19:20;5.10;;;3.60;;
1004;SDS011;491;53.480;10.174;2023-11-19T00:21:46;6.23;;;4.10;;
1004;SDS011;491;53.480;10.174;2023-11-19T00:24:11;5.00;;;3.43;;
1004;SDS011;491;53.480;10.174;2023-11-19T00:26:37;5.97;;;3.90;;
1004;SDS011;491;53.480;10.174;2023-11-19T00:29:03;6.03;;;4.77;;
1004;SDS011;491;53.480;10.174;2023-11-19T00:31:29;6.13;;;4.17;;
1004;SDS011;491;53.480;10.174;2023-11-19T00:33:55;6.03;;;3.70;;
1004;SDS011;491;53.480;10.174;2023-11-19T00:36:20;5.50;;;3.57;;
1004;SDS011;491;53.480;10.174;2023-11-19T00:38:46;5.63;;;4.07;;
1004;SDS011;491;53.480;10.174;2023-11-19T00:41:11;4.90;;;4.10;;
1004;SDS011;491;53.480;10.174;2023-11-19T00:43:37;3.87;;;2.20;;
1004;SDS011;491;53.480;10.174;2023-11-19T00:46:02;4.73;;;2.80;;
1004;SDS011;491;53.480;10.174;2023-11-19T00:48:29;4.27;;;2.10;;
1004;SDS011;491;53.480;10.174;2023-11-19T00:50:54;4.93;;;3.07;;
1004;SDS011;491;53.480;10.174;2023-11-19T00:53:20;4.40;;;2.33;;
1004;SDS011;491;53.480;10.174;2023-11-19T00:55:45;5.10;;;3.03;;
1004;SDS011;491;53.480;10.174;2023-11-19T00:58:11;4.17;;;2.73;;
1004;SDS011;491;53.480;10.174;2023-11-19T01:00:36;3.63;;;2.80;;
1004;SDS011;491;53.480;10.174;2023-11-19T01:03:02;3.50;;;2.60;;
1004;SDS011;491;53.480;10.174;2023-11-19T01:05:27;5.10;;;2.30;;
1004;SDS011;491;53.480;10.174;2023-11-19T01:07:53;2.97;;;2.00;;
1004;SDS011;491;53.480;10.174;2023-11-19T01:10:19;4.20;;;3.30;;
1004;SDS011;491;53.480;10.174;2023-11-19T01:12:45;4.13;;;1.97;;
1004;SDS011;491;53.480;10.174;2023-11-19T01:15:11;2.93;;;1.80;;
1004;SDS011;491;53.480;10.174;2023-11-19T01:17:37;3.80;;;1.67;;
1004;SDS011;491;53.480;10.174;2023-11-19T01:20:03;2.83;;;1.17;;
1004;SDS011;491;53.480;10.174;2023-11-19T01:22:31;3.97;;;2.27;;
1004;SDS011;491;53.480;10.174;2023-11-19T01:24:57;2.70;;;1.50;;
1004;SDS011;491;53.480;10.174;2023-11-19T01:27:23;2.93;;;1.70;;
1004;SDS011;491;53.480;10.174;2023-11-19T01:29:49;3.40;;;1.50;;
1004;SDS011;491;53.480;10.174;2023-11-19T01:32:14;2.50;;;1.37;;
1004;SDS011;491;53.480;10.174;2023-11-19T01:34:40;4.00;;;1.50;;
1004;SDS011;491;53.480;10.174;2023-11-19T01:37:06;2.67;;;0.80;;
1004;SDS011;491;53.480;10.174;2023-11-19T01:39:31;3.10;;;2.20;;
1004;SDS011;491;53.480;10.174;2023-11-19T01:41:57;2.90;;;1.60;;
1004;SDS011;491;53.480;10.174;2023-11-19T01:44:22;2.83;;;1.43;;
1004;SDS011;491;53.480;10.174;2023-11-19T01:46:48;3.07;;;2.07;;
1004;SDS011;491;53.480;10.174;2023-11-19T01:49:14;2.30;;;1.80;;
1004;SDS011;491;53.480;10.174;2023-11-19T01:51:40;2.40;;;1.40;;
1004;SDS011;491;53.480;10.174;2023-11-19T01:54:06;2.60;;;1.53;;
1004;SDS011;491;53.480;10.174;2023-11-19T01:56:32;2.83;;;1.50;;
1004;SDS011;491;53.480;10.174;2023-11-19T01:58:59;2.27;;;1.47;;
1004;SDS011;491;53.480;10.174;2023-11-19T02:01:25;2.80;;;1.50;;
1004;SDS011;491;53.480;10.174;2023-11-19T02:03:52;1.83;;;0.93;;
1004;SDS011;491;53.480;10.174;2023-11-19T02:06:17;1.63;;;0.77;;
1004;SDS011;491;53.480;10.174;2023-11-19T02:08:43;2.53;;;1.10;;
1004;SDS011;491;53.480;10.174;2023-11-19T02:11:08;2.60;;;1.13;;
1004;SDS011;491;53.480;10.174;2023-11-19T02:13:34;1.47;;;0.93;;
1004;SDS011;491;53.480;10.174;2023-11-19T02:16:03;2.77;;;1.10;;
1004;SDS011;491;53.480;10.174;2023-11-19T02:18:29;2.00;;;0.90;;
1004;SDS011;491;53.480;10.174;2023-11-19T02:20:55;2.53;;;0.70;;
1004;SDS011;491;53.480;10.174;2023-11-19T02:23:27;1.90;;;1.00;;
1004;SDS011;491;53.480;10.174;2023-11-19T02:26:05;1.97;;;0.93;;
1004;SDS011;491;53.480;10.174;2023-11-19T02:28:44;1.60;;;0.70;;
1004;SDS011;491;53.480;10.174;2023-11-19T02:31:10;2.23;;;0.77;;
1004;SDS011;491;53.480;10.174;2023-11-19T02:33:36;2.17;;;0.90;;
1004;SDS011;491;53.480;10.174;2023-11-19T02:36:03;1.90;;;1.20;;
1004;SDS011;491;53.480;10.174;2023-11-19T02:38:29;1.90;;;0.80;;
1004;SDS011;491;53.480;10.174;2023-11-19T02:40:56;1.63;;;0.70;;
1004;SDS011;491;53.480;10.174;2023-11-19T02:43:21;1.80;;;0.50;;
1004;SDS011;491;53.480;10.174;2023-11-19T02:45:47;2.30;;;1.00;;
1004;SDS011;491;53.480;10.174;2023-11-19T02:48:13;1.70;;;0.57;;
1004;SDS011;491;53.480;10.174;2023-11-19T02:50:40;1.33;;;0.60;;
1004;SDS011;491;53.480;10.174;2023-11-19T02:53:07;2.57;;;0.60;;
1004;SDS011;491;53.480;10.174;2023-11-19T02:55:32;1.57;;;0.83;;
1004;SDS011;491;53.480;10.174;2023-11-19T02:58:02;1.57;;;0.67;;
1004;SDS011;491;53.480;10.174;2023-11-19T03:00:34;2.17;;;1.03;;
1004;SDS011;491;53.480;10.174;2023-11-19T03:03:12;1.27;;;0.70;;
1004;SDS011;491;53.480;10.174;2023-11-19T03:05:45;2.27;;;0.70;;
1004;SDS011;491;53.480;10.174;2023-11-19T03:08:11;1.30;;;0.63;;
1004;SDS011;491;53.480;10.174;2023-11-19T03:10:37;1.27;;;0.80;;
1004;SDS011;491;53.480;10.174;2023-11-19T03:13:03;2.30;;;0.80;;
1004;SDS011;491;53.480;10.174;2023-11-19T03:15:29;2.50;;;1.30;;
1004;SDS011;491;53.480;10.174;2023-11-19T03:17:55;1.83;;;0.70;;
1004;SDS011;491;53.480;10.174;2023-11-19T03:20:20;4.07;;;1.57;;
1004;SDS011;491;53.480;10.174;2023-11-19T03:22:46;1.70;;;1.30;;
1004;SDS011;491;53.480;10.174;2023-11-19T03:25:12;2.43;;;1.57;;
1004;SDS011;491;53.480;10.174;2023-11-19T03:27:38;2.83;;;1.63;;
1004;SDS011;491;53.480;10.174;2023-11-19T03:30:05;2.53;;;1.17;;
1004;SDS011;491;53.480;10.174;2023-11-19T03:32:33;1.67;;;0.97;;
1004;SDS011;491;53.480;10.174;2023-11-19T03:35:00;4.33;;;1.97;;
1004;SDS011;491;53.480;10.174;2023-11-19T03:37:26;2.30;;;1.10;;
1004;SDS011;491;53.480;10.174;2023-11-19T03:39:53;1.80;;;1.30;;
1004;SDS011;491;53.480;10.174;2023-11-19T03:42:19;1.80;;;1.00;;
1004;SDS011;491;53.480;10.174;2023-11-19T03:44:45;2.23;;;1.00;;
1004;SDS011;491;53.480;10.174;2023-11-19T03:47:11;4.67;;;1.80;;
1004;SDS011;491;53.480;10.174;2023-11-19T03:49:36;3.27;;;1.63;;
1004;SDS011;491;53.480;10.174;2023-11-19T03:52:02;2.30;;;1.10;;
1004;SDS011;491;53.480;10.174;2023-11-19T03:54:28;2.93;;;1.77;;
1004;SDS011;491;53.480;10.174;2023-11-19T03:56:53;3.50;;;1.03;;
1004;SDS011;491;53.480;10.174;2023-11-19T03:59:19;2.47;;;0.87;;
1004;SDS011;491;53.480;10.174;2023-11-19T04:01:45;1.70;;;1.23;;
1004;SDS011;491;53.480;10.174;2023-11-19T04:04:11;2.53;;;0.70;;
1004;SDS011;491;53.480;10.174;2023-11-19T04:06:37;3.07;;;1.07;;
1004;SDS011;491;53.480;10.174;2023-11-19T04:09:02;1.93;;;0.70;;
1004;SDS011;491;53.480;10.174;2023-11-19T04:11:28;1.67;;;0.83;;
1004;SDS011;491;53.480;10.174;2023-11-19T04:13:54;2.33;;;1.30;;
1004;SDS011;491;53.480;10.174;2023-11-19T04:16:19;1.80;;;1.40;;
1004;SDS011;491;53.480;10.174;2023-11-19T04:18:52;1.80;;;0.83;;
1004;SDS011;491;53.480;10.174;2023-11-19T04:21:18;1.80;;;0.63;;
1004;SDS011;491;53.480;10.174;2023-11-19T04:23:43;1.57;;;0.90;;
1004;SDS011;491;53.480;10.174;2023-11-19T04:26:09;1.53;;;0.73;;
1004;SDS011;491;53.480;10.174;2023-11-19T04:28:35;1.33;;;0.50;;
1004;SDS011;491;53.480;10.174;2023-11-19T04:31:01;1.47;;;0.80;;
1004;SDS011;491;53.480;10.174;2023-11-19T04:33:28;5.20;;;1.07;;
1004;SDS011;491;53.480;10.174;2023-11-19T04:35:54;2.73;;;1.00;;
1004;SDS011;491;53.480;10.174;2023-11-19T04:38:20;2.73;;;0.90;;
1004;SDS011;491;53.480;10.174;2023-11-19T04:40:46;2.00;;;1.00;;
1004;SDS011;491;53.480;10.174;2023-11-19T04:43:12;1.70;;;0.57;;
1004;SDS011;491;53.480;10.174;2023-11-19T04:45:38;1.70;;;0.53;;
1004;SDS011;491;53.480;10.174;2023-11-19T04:48:05;1.20;;;0.80;;
1004;SDS011;491;53.480;10.174;2023-11-19T04:50:30;1.40;;;0.60;;
1004;SDS011;491;53.480;10.174;2023-11-19T04:52:56;1.80;;;0.97;;
1004;SDS011;491;53.480;10.174;2023-11-19T04:55:22;2.30;;;1.13;;
1004;SDS011;491;53.480;10.174;2023-11-19T04:57:48;1.87;;;1.00;;
1004;SDS011;491;53.480;10.174;2023-11-19T05:00:14;2.23;;;1.40;;
1004;SDS011;491;53.480;10.174;2023-11-19T05:02:40;1.90;;;0.90;;
1004;SDS011;491;53.480;10.174;2023-11-19T05:05:06;4.00;;;1.10;;
1004;SDS011;491;53.480;10.174;2023-11-19T05:07:32;2.40;;;1.03;;
1004;SDS011;491;53.480;10.174;2023-11-19T05:09:58;2.37;;;0.93;;
1004;SDS011;491;53.480;10.174;2023-11-19T05:12:24;2.80;;;0.97;;
1004;SDS011;491;53.480;10.174;2023-11-19T05:14:50;1.90;;;1.07;;
1004;SDS011;491;53.480;10.174;2023-11-19T05:17:17;5.43;;;2.33;;
1004;SDS011;491;53.480;10.174;2023-11-19T05:19:43;3.67;;;1.77;;
1004;SDS011;491;53.480;10.174;2023-11-19T05:22:09;2.40;;;1.57;;
1004;SDS011;491;53.480;10.174;2023-11-19T05:24:35;3.10;;;2.27;;
1004;SDS011;491;53.480;10.174;2023-11-19T05:27:01;3.70;;;2.27;;
1004;SDS011;491;53.480;10.174;2023-11-19T05:29:27;3.77;;;2.20;;
1004;SDS011;491;53.480;10.174;2023-11-19T05:31:54;7.57;;;2.87;;
1004;SDS011;491;53.480;10.174;2023-11-19T05:34:20;4.10;;;1.93;;
1004;SDS011;491;53.480;10.174;2023-11-19T05:36:46;3.23;;;2.20;;
1004;SDS011;491;53.480;10.174;2023-11-19T05:39:12;4.20;;;2.20;;
1004;SDS011;491;53.480;10.174;2023-11-19T05:41:38;8.40;;;2.60;;
1004;SDS011;491;53.480;10.174;2023-11-19T05:44:04;3.20;;;2.00;;
1004;SDS011;491;53.480;10.174;2023-11-19T05:46:30;3.20;;;1.70;;
1004;SDS011;491;53.480;10.174;2023-11-19T05:48:56;3.27;;;2.57;;
1004;SDS011;491;53.480;10.174;2023-11-19T05:51:22;4.30;;;2.30;;
1004;SDS011;491;53.480;10.174;2023-11-19T05:53:49;5.50;;;2.53;;
1004;SDS011;491;53.480;10.174;2023-11-19T05:56:15;4.20;;;2.50;;
1004;SDS011;491;53.480;10.174;2023-11-19T05:58:46;5.77;;;1.90;;
1004;SDS011;491;53.480;10.174;2023-11-19T06:01:13;5.10;;;3.00;;
1004;SDS011;491;53.480;10.174;2023-11-19T06:03:39;5.43;;;2.67;;
1004;SDS011;491;53.480;10.174;2023-11-19T06:06:05;5.10;;;3.00;;
1004;SDS011;491;53.480;10.174;2023-11-19T06:08:32;5.07;;;3.57;;
1004;SDS011;491;53.480;10.174;2023-11-19T06:10:58;5.30;;;4.00;;
1004;SDS011;491;53.480;10.174;2023-11-19T06:13:25;5.43;;;3.30;;
1004;SDS011;491;53.480;10.174;2023-11-19T06:15:51;5.03;;;3.40;;
1004;SDS011;491;53.480;10.174;2023-11-19T06:18:17;5.27;;;2.40;;
1004;SDS011;491;53.480;10.174;2023-11-19T06:20:44;5.23;;;3.90;;
1004;SDS011;491;53.480;10.174;2023-11-19T06:23:10;7.27;;;4.40;;
1004;SDS011;491;53.480;10.174;2023-11-19T06:25:38;11.40;;;6.10;;
1004;SDS011;491;53.480;10.174;2023-11-19T06:28:03;12.37;;;6.93;;
1004;SDS011;491;53.480;10.174;2023-11-19T06:30:29;16.87;;;9.43;;
1004;SDS011;491;53.480;10.174;2023-11-19T06:32:57;13.80;;;8.60;;
1004;SDS011;491;53.480;10.174;2023-11-19T06:35:23;23.40;;;9.97;;
1004;SDS011;491;53.480;10.174;2023-11-19T06:37:49;21.23;;;10.03;;
1004;SDS011;491;53.480;10.174;2023-11-19T06:40:15;20.20;;;8.37;;
1004;SDS011;491;53.480;10.174;2023-11-19T06:42:41;22.33;;;9.70;;
1004;SDS011;491;53.480;10.174;2023-11-19T06:45:07;23.67;;;10.40;;
1004;SDS011;491;53.480;10.174;2023-11-19T06:47:34;17.33;;;9.93;;
1004;SDS011;491;53.480;10.174;2023-11-19T06:50:00;29.83;;;11.30;;
1004;SDS011;491;53.480;10.174;2023-11-19T06:52:26;23.33;;;10.80;;
1004;SDS011;491;53.480;10.174;2023-11-19T06:54:52;31.40;;;11.10;;
1004;SDS011;491;53.480;10.174;2023-11-19T06:57:18;21.80;;;9.03;;
1004;SDS011;491;53.480;10.174;2023-11-19T06:59:45;24.63;;;8.47;;
1004;SDS011;491;53.480;10.174;2023-11-19T07:02:11;31.30;;;9.90;;
1004;SDS011;491;53.480;10.174;2023-11-19T07:04:37;24.53;;;9.93;;
1004;SDS011;491;53.480;10.174;2023-11-19T07:07:03;22.87;;;8.40;;
1004;SDS011;491;53.480;10.174;2023-11-19T07:09:30;23.67;;;8.23;;
1004;SDS011;491;53.480;10.174;2023-11-19T07:11:56;17.20;;;8.53;;
1004;SDS011;491;53.480;10.174;2023-11-19T07:14:22;19.70;;;8.50;;
1004;SDS011;491;53.480;10.174;2023-11-19T07:16:48;23.07;;;7.20;;
1004;SDS011;491;53.480;10.174;2023-11-19T07:19:15;21.07;;;7.50;;
1004;SDS011;491;53.480;10.174;2023-11-19T07:21:41;22.93;;;8.17;;
1004;SDS011;491;53.480;10.174;2023-11-19T07:24:09;19.27;;;8.03;;
1004;SDS011;491;53.480;10.174;2023-11-19T07:26:35;21.20;;;7.00;;
1004;SDS011;491;53.480;10.174;2023-11-19T07:29:02;18.60;;;6.23;;
1004;SDS011;491;53.480;10.174;2023-11-19T07:31:28;16.63;;;4.87;;
1004;SDS011;491;53.480;10.174;2023-11-19T07:33:54;19.50;;;5.53;;
1004;SDS011;491;53.480;10.174;2023-11-19T07:36:20;19.33;;;5.17;;
1004;SDS011;491;53.480;10.174;2023-11-19T07:38:46;12.27;;;5.10;;
1004;SDS011;491;53.480;10.174;2023-11-19T07:41:15;17.70;;;5.60;;
1004;SDS011;491;53.480;10.174;2023-11-19T07:43:44;25.17;;;6.37;;
1004;SDS011;491;53.480;10.174;2023-11-19T07:46:11;19.77;;;6.70;;
1004;SDS011;491;53.480;10.174;2023-11-19T07:48:37;18.20;;;7.47;;
1004;SDS011;491;53.480;10.174;2023-11-19T07:51:03;23.50;;;6.37;;
1004;SDS011;491;53.480;10.174;2023-11-19T07:53:29;24.83;;;7.07;;
1004;SDS011;491;53.480;10.174;2023-11-19T07:55:55;21.53;;;7.07;;
1004;SDS011;491;53.480;10.174;2023-11-19T07:58:21;21.97;;;7.80;;
1004;SDS011;491;53.480;10.174;2023-11-19T08:00:47;26.53;;;8.13;;
1004;SDS011;491;53.480;10.174;2023-11-19T08:03:13;29.27;;;7.90;;
1004;SDS011;491;53.480;10.174;2023-11-19T08:05:39;23.47;;;6.43;;
1004;SDS011;491;53.480;10.174;2023-11-19T08:08:05;17.53;;;5.83;;
1004;SDS011;491;53.480;10.174;2023-11-19T08:10:32;27.63;;;5.60;;
1004;SDS011;491;53.480;10.174;2023-11-19T08:12:58;25.10;;;5.67;;
1004;SDS011;491;53.480;10.174;2023-11-19T08:15:24;23.33;;;5.87;;
1004;SDS011;491;53.480;10.174;2023-11-19T08:17:50;22.17;;;5.57;;
1004;SDS011;491;53.480;10.174;2023-11-19T08:20:16;28.10;;;5.60;;
1004;SDS011;491;53.480;10.174;2023-11-19T08:22:42;25.13;;;6.00;;
1004;SDS011;491;53.480;10.174;2023-11-19T08:25:08;31.53;;;5.90;;
1004;SDS011;491;53.480;10.174;2023-11-19T08:27:34;25.50;;;5.57;;
1004;SDS011;491;53.480;10.174;2023-11-19T08:29:59;23.20;;;5.93;;
1004;SDS011;491;53.480;10.174;2023-11-19T08:32:26;23.27;;;5.57;;
1004;SDS011;491;53.480;10.174;2023-11-19T08:34:52;31.63;;;6.27;;
1004;SDS011;491;53.480;10.174;2023-11-19T08:37:19;24.23;;;6.03;;
1004;SDS011;491;53.480;10.174;2023-11-19T08:39:48;25.07;;;5.70;;
1004;SDS011;491;53.480;10.174;2023-11-19T08:42:14;28.27;;;7.53;;
1004;SDS011;491;53.480;10.174;2023-11-19T08:44:40;22.17;;;4.60;;
1004;SDS011;491;53.480;10.174;2023-11-19T08:47:08;19.40;;;5.00;;
1004;SDS011;491;53.480;10.174;2023-11-19T08:49:34;19.83;;;5.40;;
1004;SDS011;491;53.480;10.174;2023-11-19T08:52:01;23.03;;;5.07;;
1004;SDS011;491;53.480;10.174;2023-11-19T08:54:27;20.33;;;4.10;;
1004;SDS011;491;53.480;10.174;2023-11-19T08:56:53;22.17;;;5.53;;
1004;SDS011;491;53.480;10.174;2023-11-19T08:59:19;24.00;;;6.00;;
1004;SDS011;491;53.480;10.174;2023-11-19T09:01:45;21.83;;;3.60;;
1004;SDS011;491;53.480;10.174;2023-11-19T09:04:10;17.17;;;4.37;;
1004;SDS011;491;53.480;10.174;2023-11-19T09:06:36;17.83;;;4.07;;
1004;SDS011;491;53.480;10.174;2023-11-19T09:09:02;17.83;;;3.73;;
1004;SDS011;491;53.480;10.174;2023-11-19T09:11:30;17.30;;;3.13;;
1004;SDS011;491;53.480;10.174;2023-11-19T09:13:56;20.27;;;4.63;;
1004;SDS011;491;53.480;10.174;2023-11-19T09:16:22;21.80;;;4.27;;
1004;SDS011;491;53.480;10.174;2023-11-19T09:18:49;14.87;;;3.60;;
1004;SDS011;491;53.480;10.174;2023-11-19T09:21:15;27.80;;;5.20;;
1004;SDS011;491;53.480;10.174;2023-11-19T09:23:41;20.80;;;6.40;;
1004;SDS011;491;53.480;10.174;2023-11-19T09:26:08;15.63;;;2.90;;
1004;SDS011;491;53.480;10.174;2023-11-19T09:28:35;20.30;;;4.03;;
1004;SDS011;491;53.480;10.174;2023-11-19T09:31:01;21.00;;;4.00;;
1004;SDS011;491;53.480;10.174;2023-11-19T09:33:29;23.40;;;4.10;;
1004;SDS011;491;53.480;10.174;2023-11-19T09:35:55;30.17;;;5.90;;
1004;SDS011;491;53.480;10.174;2023-11-19T09:38:22;18.27;;;2.70;;
1004;SDS011;491;53.480;10.174;2023-11-19T09:40:48;20.53;;;4.60;;
1004;SDS011;491;53.480;10.174;2023-11-19T09:43:15;32.37;;;5.90;;
1004;SDS011;491;53.480;10.174;2023-11-19T09:45:47;26.03;;;5.40;;
1004;SDS011;491;53.480;10.174;2023-11-19T09:48:16;19.33;;;4.20;;
1004;SDS011;491;53.480;10.174;2023-11-19T09:50:43;25.70;;;4.90;;
1004;SDS011;491;53.480;10.174;2023-11-19T09:53:09;30.90;;;4.60;;
1004;SDS011;491;53.480;10.174;2023-11-19T09:55:35;23.33;;;3.80;;
1004;SDS011;491;53.480;10.174;2023-11-19T09:58:01;28.33;;;5.87;;
1004;SDS011;491;53.480;10.174;2023-11-19T10:00:28;14.90;;;3.20;;
1004;SDS011;491;53.480;10.174;2023-11-19T10:02:54;30.33;;;5.33;;
1004;SDS011;491;53.480;10.174;2023-11-19T10:05:22;18.13;;;3.63;;
1004;SDS011;491;53.480;10.174;2023-11-19T10:07:49;26.17;;;3.60;;
1004;SDS011;491;53.480;10.174;2023-11-19T10:10:16;30.10;;;5.77;;
1004;SDS011;491;53.480;10.174;2023-11-19T10:12:44;14.77;;;3.40;;
1004;SDS011;491;53.480;10.174;2023-11-19T10:15:13;23.93;;;5.20;;
1004;SDS011;491;53.480;10.174;2023-11-19T10:17:43;20.40;;;4.67;;
1004;SDS011;491;53.480;10.174;2023-11-19T10:20:09;17.47;;;4.20;;
1004;SDS011;491;53.480;10.174;2023-11-19T10:22:36;22.53;;;4.63;;
1004;SDS011;491;53.480;10.174;2023-11-19T10:25:03;27.37;;;4.03;;
1004;SDS011;491;53.480;10.174;2023-11-19T10:27:29;22.03;;;4.00;;
1004;SDS011;491;53.480;10.174;2023-11-19T10:29:57;28.00;;;5.03;;
1004;SDS011;491;53.480;10.174;2023-11-19T10:32:24;21.37;;;3.93;;
1004;SDS011;491;53.480;10.174;2023-11-19T10:34:50;18.70;;;4.33;;
1004;SDS011;491;53.480;10.174;2023-11-19T10:37:29;22.27;;;4.10;;
1004;SDS011;491;53.480;10.174;2023-11-19T10:39:57;19.97;;;3.30;;
1004;SDS011;491;53.480;10.174;2023-11-19T10:42:23;23.37;;;3.60;;
1004;SDS011;491;53.480;10.174;2023-11-19T10:44:49;24.17;;;5.63;;
1004;SDS011;491;53.480;10.174;2023-11-19T10:47:15;22.03;;;5.03;;
1004;SDS011;491;53.480;10.174;2023-11-19T10:49:43;19.47;;;5.13;;
1004;SDS011;491;53.480;10.174;2023-11-19T10:52:10;27.30;;;3.90;;
1004;SDS011;491;53.480;10.174;2023-11-19T10:54:38;24.77;;;3.63;;
1004;SDS011;491;53.480;10.174;2023-11-19T10:57:07;18.60;;;3.70;;
1004;SDS011;491;53.480;10.174;2023-11-19T10:59:35;28.93;;;5.20;;
1004;SDS011;491;53.480;10.174;2023-11-19T11:02:03;26.40;;;4.50;;
1004;SDS011;491;53.480;10.174;2023-11-19T11:04:30;19.63;;;3.83;;
1004;SDS011;491;53.480;10.174;2023-11-19T11:06:59;22.33;;;3.90;;
1004;SDS011;491;53.480;10.174;2023-11-19T11:09:26;26.07;;;4.43;;
1004;SDS011;491;53.480;10.174;2023-11-19T11:11:53;15.53;;;2.93;;
1004;SDS011;491;53.480;10.174;2023-11-19T11:14:20;22.43;;;5.03;;
1004;SDS011;491;53.480;10.174;2023-11-19T11:16:46;18.93;;;3.00;;
1004;SDS011;491;53.480;10.174;2023-11-19T11:19:15;21.37;;;4.43;;
1004;SDS011;491;53.480;10.174;2023-11-19T11:21:44;15.40;;;3.03;;
1004;SDS011;491;53.480;10.174;2023-11-19T11:24:23;18.83;;;3.47;;
1004;SDS011;491;53.480;10.174;2023-11-19T11:29:51;19.53;;;4.87;;
1004;SDS011;491;53.480;10.174;2023-11-19T11:32:33;21.87;;;5.07;;
1004;SDS011;491;53.480;10.174;2023-11-19T11:37:34;22.80;;;7.03;;
1004;SDS011;491;53.480;10.174;2023-11-19T11:40:02;22.90;;;3.70;;
1004;SDS011;491;53.480;10.174;2023-11-19T11:42:35;23.50;;;4.37;;
1004;SDS011;491;53.480;10.174;2023-11-19T11:45:05;19.90;;;3.73;;
1004;SDS011;491;53.480;10.174;2023-11-19T11:50:16;20.10;;;4.23;;
1004;SDS011;491;53.480;10.174;2023-11-19T11:58:05;21.37;;;3.23;;
1004;SDS011;491;53.480;10.174;2023-11-19T12:00:32;28.47;;;4.37;;
1004;SDS011;491;53.480;10.174;2023-11-19T12:03:01;21.30;;;3.90;;
1004;SDS011;491;53.480;10.174;2023-11-19T12:05:27;19.13;;;4.33;;
1004;SDS011;491;53.480;10.174;2023-11-19T12:07:55;17.43;;;4.20;;
1004;SDS011;491;53.480;10.174;2023-11-19T12:10:23;21.97;;;4.00;;
1004;SDS011;491;53.480;10.174;2023-11-19T12:12:52;16.70;;;3.63;;
1004;SDS011;491;53.480;10.174;2023-11-19T12:15:18;21.43;;;4.43;;
1004;SDS011;491;53.480;10.174;2023-11-19T12:17:50;27.90;;;5.97;;
1004;SDS011;491;53.480;10.174;2023-11-19T12:20:17;20.13;;;3.40;;
1004;SDS011;491;53.480;10.174;2023-11-19T12:22:43;16.17;;;3.70;;
1004;SDS011;491;53.480;10.174;2023-11-19T12:25:10;23.77;;;3.73;;
1004;SDS011;491;53.480;10.174;2023-11-19T12:27:40;19.00;;;3.20;;
1004;SDS011;491;53.480;10.174;2023-11-19T12:30:06;17.10;;;4.30;;
1004;SDS011;491;53.480;10.174;2023-11-19T12:32:42;20.57;;;4.10;;
1004;SDS011;491;53.480;10.174;2023-11-19T12:35:09;20.60;;;4.17;;
1004;SDS011;491;53.480;10.174;2023-11-19T12:37:39;24.20;;;4.47;;
1004;SDS011;491;53.480;10.174;2023-11-19T12:40:10;23.23;;;5.90;;
1004;SDS011;491;53.480;10.174;2023-11-19T12:42:36;15.23;;;3.60;;
1004;SDS011;491;53.480;10.174;2023-11-19T12:45:03;14.33;;;3.57;;
1004;SDS011;491;53.480;10.174;2023-11-19T12:47:29;15.77;;;3.63;;
1004;SDS011;491;53.480;10.174;2023-11-19T12:49:56;14.73;;;2.87;;
1004;SDS011;491;53.480;10.174;2023-11-19T12:52:22;20.30;;;3.20;;
1004;SDS011;491;53.480;10.174;2023-11-19T12:54:48;15.93;;;3.47;;
1004;SDS011;491;53.480;10.174;2023-11-19T12:57:15;13.93;;;2.47;;
1004;SDS011;491;53.480;10.174;2023-11-19T12:59:41;15.43;;;3.90;;
1004;SDS011;491;53.480;10.174;2023-11-19T13:02:08;20.10;;;3.37;;
1004;SDS011;491;53.480;10.174;2023-11-19T13:04:34;15.17;;;3.20;;
1004;SDS011;491;53.480;10.174;2023-11-19T13:07:00;17.10;;;3.00;;
1004;SDS011;491;53.480;10.174;2023-11-19T13:09:31;15.83;;;2.97;;
1004;SDS011;491;53.480;10.174;2023-11-19T13:11:57;17.10;;;2.70;;
1004;SDS011;491;53.480;10.174;2023-11-19T13:14:35;16.30;;;2.13;;
1004;SDS011;491;53.480;10.174;2023-11-19T13:17:02;17.63;;;3.73;;
1004;SDS011;491;53.480;10.174;2023-11-19T13:19:28;18.97;;;3.37;;
1004;SDS011;491;53.480;10.174;2023-11-19T13:21:54;20.67;;;3.50;;
1004;SDS011;491;53.480;10.174;2023-11-19T13:24:20;22.00;;;3.43;;
1004;SDS011;491;53.480;10.174;2023-11-19T13:26:46;15.50;;;3.33;;
1004;SDS011;491;53.480;10.174;2023-11-19T13:29:12;18.70;;;3.33;;
1004;SDS011;491;53.480;10.174;2023-11-19T13:31:38;19.20;;;3.27;;
1004;SDS011;491;53.480;10.174;2023-11-19T13:34:04;20.67;;;5.63;;
1004;SDS011;491;53.480;10.174;2023-11-19T13:36:33;13.60;;;3.10;;
1004;SDS011;491;53.480;10.174;2023-11-19T13:38:59;22.37;;;3.87;;
1004;SDS011;491;53.480;10.174;2023-11-19T13:41:26;20.03;;;3.27;;
1004;SDS011;491;53.480;10.174;2023-11-19T13:43:52;19.07;;;4.20;;
1004;SDS011;491;53.480;10.174;2023-11-19T13:46:18;21.93;;;5.47;;
1004;SDS011;491;53.480;10.174;2023-11-19T13:48:45;13.17;;;2.97;;
1004;SDS011;491;53.480;10.174;2023-11-19T13:51:11;19.53;;;3.53;;
1004;SDS011;491;53.480;10.174;2023-11-19T13:53:36;16.60;;;3.83;;
1004;SDS011;491;53.480;10.174;2023-11-19T13:56:02;19.70;;;4.10;;
1004;SDS011;491;53.480;10.174;2023-11-19T13:58:28;21.67;;;5.50;;
1004;SDS011;491;53.480;10.174;2023-11-19T14:00:54;16.90;;;3.20;;
1004;SDS011;491;53.480;10.174;2023-11-19T14:03:20;19.60;;;3.10;;
1004;SDS011;491;53.480;10.174;2023-11-19T14:05:46;19.17;;;3.60;;
1004;SDS011;491;53.480;10.174;2023-11-19T14:08:14;21.03;;;4.40;;
1004;SDS011;491;53.480;10.174;2023-11-19T14:10:40;17.40;;;4.47;;
1004;SDS011;491;53.480;10.174;2023-11-19T14:13:06;21.67;;;4.00;;
1004;SDS011;491;53.480;10.174;2023-11-19T14:15:32;22.67;;;4.07;;
1004;SDS011;491;53.480;10.174;2023-11-19T14:17:58;24.57;;;4.60;;
1004;SDS011;491;53.480;10.174;2023-11-19T14:20:24;18.93;;;3.67;;
1004;SDS011;491;53.480;10.174;2023-11-19T14:22:50;17.17;;;4.23;;
1004;SDS011;491;53.480;10.174;2023-11-19T14:25:17;20.77;;;3.40;;
1004;SDS011;491;53.480;10.174;2023-11-19T14:27:43;27.07;;;5.00;;
1004;SDS011;491;53.480;10.174;2023-11-19T14:30:11;20.90;;;4.10;;
1004;SDS011;491;53.480;10.174;2023-11-19T14:32:38;18.10;;;3.63;;
1004;SDS011;491;53.480;10.174;2023-11-19T14:35:04;20.40;;;4.87;;
1004;SDS011;491;53.480;10.174;2023-11-19T14:37:31;21.17;;;3.33;;
1004;SDS011;491;53.480;10.174;2023-11-19T14:39:57;17.23;;;3.10;;
1004;SDS011;491;53.480;10.174;2023-11-19T14:42:23;20.33;;;4.37;;
1004;SDS011;491;53.480;10.174;2023-11-19T14:44:50;21.73;;;3.40;;
1004;SDS011;491;53.480;10.174;2023-11-19T14:47:17;15.70;;;4.10;;
1004;SDS011;491;53.480;10.174;2023-11-19T14:49:43;20.10;;;4.00;;
1004;SDS011;491;53.480;10.174;2023-11-19T14:52:09;15.80;;;3.63;;
1004;SDS011;491;53.480;10.174;2023-11-19T14:54:36;18.43;;;4.10;;
1004;SDS011;491;53.480;10.174;2023-11-19T14:57:03;18.60;;;3.73;;
1004;SDS011;491;53.480;10.174;2023-11-19T14:59:29;15.03;;;2.93;;
1004;SDS011;491;53.480;10.174;2023-11-19T15:01:55;18.40;;;4.03;;
1004;SDS011;491;53.480;10.174;2023-11-19T15:04:22;21.90;;;2.93;;
1004;SDS011;491;53.480;10.174;2023-11-19T15:06:48;15.53;;;3.47;;
1004;SDS011;491;53.480;10.174;2023-11-19T15:09:14;16.93;;;2.53;;
1004;SDS011;491;53.480;10.174;2023-11-19T15:11:42;15.40;;;4.30;;
1004;SDS011;491;53.480;10.174;2023-11-19T15:14:10;13.07;;;3.87;;
1004;SDS011;491;53.480;10.174;2023-11-19T15:16:39;12.73;;;2.37;;
1004;SDS011;491;53.480;10.174;2023-11-19T15:19:05;13.23;;;3.47;;